Aqua Ramon, Colorado
Current Conditions -  °F | °C
As of 9:30 AM on Saturday 22 Nov 2014 (Local Time) from KRCV Reporting Station
Clear Clear  
Wind Chill: 28°   Ceiling: Unl
Heat Index: 35°   Visibility: 10mi
Dew Point: 15°   Wind: 8mph
Humidity: 44%   Direction: 260°W
Pressure: 30.09"   Gusts: NA
Location:  37.6359°N, 106.449°W
Report Text: KRCV 221630Z AUTO 26007KT 10SM CLR 02/M10 A3009 RMK AO2 LTG DSNT E AND SE T00151097
Loading
Personal Weather Stations






























Interactive Weather Map New forecast layout! Learn more

10-Day Weather Forecast

Advertisements
Track Severe Weather on mobile